sensor_id;sensor_type;location;lat;lon;timestamp;P1;durP1;ratioP1;P2;durP2;ratioP2
5058;SDS011;2548;52.050;11.036;2022-08-05T00:00:21;3.77;;;3.47;;
5058;SDS011;2548;52.050;11.036;2022-08-05T00:02:49;11.67;;;4.10;;
5058;SDS011;2548;52.050;11.036;2022-08-05T00:05:16;7.53;;;3.50;;
5058;SDS011;2548;52.050;11.036;2022-08-05T00:07:43;6.50;;;2.93;;
5058;SDS011;2548;52.050;11.036;2022-08-05T00:10:11;3.03;;;2.80;;
5058;SDS011;2548;52.050;11.036;2022-08-05T00:12:38;3.70;;;3.20;;
5058;SDS011;2548;52.050;11.036;2022-08-05T00:15:07;4.50;;;3.47;;
5058;SDS011;2548;52.050;11.036;2022-08-05T00:17:35;6.00;;;3.90;;
5058;SDS011;2548;52.050;11.036;2022-08-05T00:20:02;3.93;;;2.60;;
5058;SDS011;2548;52.050;11.036;2022-08-05T00:22:30;6.83;;;3.97;;
5058;SDS011;2548;52.050;11.036;2022-08-05T00:24:58;5.67;;;3.40;;
5058;SDS011;2548;52.050;11.036;2022-08-05T00:27:25;5.13;;;3.30;;
5058;SDS011;2548;52.050;11.036;2022-08-05T00:29:53;3.20;;;3.00;;
5058;SDS011;2548;52.050;11.036;2022-08-05T00:32:21;3.87;;;3.57;;
5058;SDS011;2548;52.050;11.036;2022-08-05T00:34:49;3.20;;;2.90;;
5058;SDS011;2548;52.050;11.036;2022-08-05T00:37:16;5.33;;;3.13;;
5058;SDS011;2548;52.050;11.036;2022-08-05T00:39:43;8.03;;;3.60;;
5058;SDS011;2548;52.050;11.036;2022-08-05T00:42:11;10.57;;;3.30;;
5058;SDS011;2548;52.050;11.036;2022-08-05T00:44:41;8.07;;;2.50;;
5058;SDS011;2548;52.050;11.036;2022-08-05T00:47:08;3.53;;;3.23;;
5058;SDS011;2548;52.050;11.036;2022-08-05T00:49:37;5.20;;;3.40;;
5058;SDS011;2548;52.050;11.036;2022-08-05T00:52:04;5.90;;;2.87;;
5058;SDS011;2548;52.050;11.036;2022-08-05T00:54:32;5.97;;;2.73;;
5058;SDS011;2548;52.050;11.036;2022-08-05T00:56:59;3.53;;;2.80;;
5058;SDS011;2548;52.050;11.036;2022-08-05T00:59:26;4.00;;;2.77;;
5058;SDS011;2548;52.050;11.036;2022-08-05T01:01:54;6.37;;;3.10;;
5058;SDS011;2548;52.050;11.036;2022-08-05T01:04:21;5.30;;;2.63;;
5058;SDS011;2548;52.050;11.036;2022-08-05T01:06:50;3.77;;;3.30;;
5058;SDS011;2548;52.050;11.036;2022-08-05T01:09:17;10.40;;;3.40;;
5058;SDS011;2548;52.050;11.036;2022-08-05T01:11:45;10.63;;;3.60;;
5058;SDS011;2548;52.050;11.036;2022-08-05T01:14:17;9.43;;;3.33;;
5058;SDS011;2548;52.050;11.036;2022-08-05T01:16:51;4.53;;;3.53;;
5058;SDS011;2548;52.050;11.036;2022-08-05T01:19:24;6.50;;;3.23;;
5058;SDS011;2548;52.050;11.036;2022-08-05T01:30:51;3.30;;;3.00;;
5058;SDS011;2548;52.050;11.036;2022-08-05T01:33:23;4.37;;;3.07;;
5058;SDS011;2548;52.050;11.036;2022-08-05T01:35:56;6.80;;;3.30;;
5058;SDS011;2548;52.050;11.036;2022-08-05T01:38:26;5.13;;;3.30;;
5058;SDS011;2548;52.050;11.036;2022-08-05T01:40:56;14.83;;;3.83;;
5058;SDS011;2548;52.050;11.036;2022-08-05T01:43:26;8.63;;;4.27;;
5058;SDS011;2548;52.050;11.036;2022-08-05T01:45:55;4.67;;;4.00;;
5058;SDS011;2548;52.050;11.036;2022-08-05T01:48:23;12.83;;;5.37;;
5058;SDS011;2548;52.050;11.036;2022-08-05T01:50:52;8.43;;;5.13;;
5058;SDS011;2548;52.050;11.036;2022-08-05T01:53:22;10.40;;;6.33;;
5058;SDS011;2548;52.050;11.036;2022-08-05T01:55:51;9.10;;;6.60;;
5058;SDS011;2548;52.050;11.036;2022-08-05T01:58:24;11.30;;;6.70;;
5058;SDS011;2548;52.050;11.036;2022-08-05T02:00:55;14.13;;;6.63;;
5058;SDS011;2548;52.050;11.036;2022-08-05T02:03:25;8.10;;;5.90;;
5058;SDS011;2548;52.050;11.036;2022-08-05T02:05:57;10.73;;;5.07;;
5058;SDS011;2548;52.050;11.036;2022-08-05T02:08:26;10.07;;;5.40;;
5058;SDS011;2548;52.050;11.036;2022-08-05T02:10:55;8.60;;;5.23;;
5058;SDS011;2548;52.050;11.036;2022-08-05T02:13:32;6.93;;;5.20;;
5058;SDS011;2548;52.050;11.036;2022-08-05T02:16:04;6.80;;;5.57;;
5058;SDS011;2548;52.050;11.036;2022-08-05T02:18:39;10.90;;;5.73;;
5058;SDS011;2548;52.050;11.036;2022-08-05T02:21:11;12.37;;;6.87;;
5058;SDS011;2548;52.050;11.036;2022-08-05T02:23:41;8.03;;;5.30;;
5058;SDS011;2548;52.050;11.036;2022-08-05T02:26:10;12.13;;;5.93;;
5058;SDS011;2548;52.050;11.036;2022-08-05T02:28:42;10.97;;;6.20;;
5058;SDS011;2548;52.050;11.036;2022-08-05T02:31:13;10.93;;;5.20;;
5058;SDS011;2548;52.050;11.036;2022-08-05T02:33:43;6.90;;;5.97;;
5058;SDS011;2548;52.050;11.036;2022-08-05T02:36:16;7.47;;;5.63;;
5058;SDS011;2548;52.050;11.036;2022-08-05T02:38:48;10.40;;;5.40;;
5058;SDS011;2548;52.050;11.036;2022-08-05T02:41:16;7.27;;;6.27;;
5058;SDS011;2548;52.050;11.036;2022-08-05T02:43:46;8.00;;;5.90;;
5058;SDS011;2548;52.050;11.036;2022-08-05T02:46:16;8.27;;;5.40;;
5058;SDS011;2548;52.050;11.036;2022-08-05T02:48:46;10.87;;;5.73;;
5058;SDS011;2548;52.050;11.036;2022-08-05T02:51:14;8.03;;;5.53;;
5058;SDS011;2548;52.050;11.036;2022-08-05T02:53:42;5.90;;;5.40;;
5058;SDS011;2548;52.050;11.036;2022-08-05T02:56:11;9.13;;;6.63;;
5058;SDS011;2548;52.050;11.036;2022-08-05T02:58:40;11.70;;;5.90;;
5058;SDS011;2548;52.050;11.036;2022-08-05T03:01:10;12.23;;;7.00;;
5058;SDS011;2548;52.050;11.036;2022-08-05T03:03:40;10.83;;;7.00;;
5058;SDS011;2548;52.050;11.036;2022-08-05T03:06:09;10.57;;;7.30;;
5058;SDS011;2548;52.050;11.036;2022-08-05T03:08:38;12.00;;;7.77;;
5058;SDS011;2548;52.050;11.036;2022-08-05T03:11:15;10.73;;;7.57;;
5058;SDS011;2548;52.050;11.036;2022-08-05T03:13:43;11.13;;;8.03;;
5058;SDS011;2548;52.050;11.036;2022-08-05T03:16:12;12.50;;;7.93;;
5058;SDS011;2548;52.050;11.036;2022-08-05T03:18:40;16.50;;;7.80;;
5058;SDS011;2548;52.050;11.036;2022-08-05T03:21:07;8.43;;;7.10;;
5058;SDS011;2548;52.050;11.036;2022-08-05T03:23:36;11.10;;;7.50;;
5058;SDS011;2548;52.050;11.036;2022-08-05T03:26:05;8.83;;;7.93;;
5058;SDS011;2548;52.050;11.036;2022-08-05T03:28:33;15.10;;;8.07;;
5058;SDS011;2548;52.050;11.036;2022-08-05T03:31:01;25.93;;;8.50;;
5058;SDS011;2548;52.050;11.036;2022-08-05T03:33:30;8.50;;;7.60;;
5058;SDS011;2548;52.050;11.036;2022-08-05T03:35:58;10.60;;;7.63;;
5058;SDS011;2548;52.050;11.036;2022-08-05T03:38:26;13.47;;;8.73;;
5058;SDS011;2548;52.050;11.036;2022-08-05T03:40:53;15.80;;;8.10;;
5058;SDS011;2548;52.050;11.036;2022-08-05T03:43:21;16.30;;;9.53;;
5058;SDS011;2548;52.050;11.036;2022-08-05T03:45:50;14.03;;;9.27;;
5058;SDS011;2548;52.050;11.036;2022-08-05T03:48:18;10.83;;;9.73;;
5058;SDS011;2548;52.050;11.036;2022-08-05T03:50:49;15.00;;;8.73;;
5058;SDS011;2548;52.050;11.036;2022-08-05T03:53:20;10.80;;;8.87;;
5058;SDS011;2548;52.050;11.036;2022-08-05T03:55:56;14.03;;;9.23;;
5058;SDS011;2548;52.050;11.036;2022-08-05T03:58:27;12.07;;;9.10;;
5058;SDS011;2548;52.050;11.036;2022-08-05T04:00:56;10.60;;;8.70;;
5058;SDS011;2548;52.050;11.036;2022-08-05T04:03:27;12.93;;;8.90;;
5058;SDS011;2548;52.050;11.036;2022-08-05T04:06:02;10.30;;;8.50;;
5058;SDS011;2548;52.050;11.036;2022-08-05T04:08:30;17.93;;;9.93;;
5058;SDS011;2548;52.050;11.036;2022-08-05T04:10:58;16.10;;;9.57;;
5058;SDS011;2548;52.050;11.036;2022-08-05T04:13:27;19.30;;;9.20;;
5058;SDS011;2548;52.050;11.036;2022-08-05T04:15:55;15.87;;;9.17;;
5058;SDS011;2548;52.050;11.036;2022-08-05T04:18:23;18.10;;;10.13;;
5058;SDS011;2548;52.050;11.036;2022-08-05T04:20:51;11.90;;;7.90;;
5058;SDS011;2548;52.050;11.036;2022-08-05T04:23:22;22.20;;;8.40;;
5058;SDS011;2548;52.050;11.036;2022-08-05T04:25:51;8.40;;;7.63;;
5058;SDS011;2548;52.050;11.036;2022-08-05T04:28:19;8.63;;;7.87;;
5058;SDS011;2548;52.050;11.036;2022-08-05T04:30:46;10.37;;;7.90;;
5058;SDS011;2548;52.050;11.036;2022-08-05T04:33:14;16.23;;;8.80;;
5058;SDS011;2548;52.050;11.036;2022-08-05T04:35:42;11.83;;;8.80;;
5058;SDS011;2548;52.050;11.036;2022-08-05T04:38:10;13.67;;;8.70;;
5058;SDS011;2548;52.050;11.036;2022-08-05T04:40:39;16.97;;;10.97;;
5058;SDS011;2548;52.050;11.036;2022-08-05T04:43:07;23.77;;;9.37;;
5058;SDS011;2548;52.050;11.036;2022-08-05T04:45:34;15.07;;;10.03;;
5058;SDS011;2548;52.050;11.036;2022-08-05T04:48:03;12.37;;;9.90;;
5058;SDS011;2548;52.050;11.036;2022-08-05T04:50:31;18.93;;;10.00;;
5058;SDS011;2548;52.050;11.036;2022-08-05T04:53:04;12.03;;;9.87;;
5058;SDS011;2548;52.050;11.036;2022-08-05T04:55:31;14.27;;;9.77;;
5058;SDS011;2548;52.050;11.036;2022-08-05T04:58:00;17.53;;;10.17;;
5058;SDS011;2548;52.050;11.036;2022-08-05T05:00:27;17.53;;;10.00;;
5058;SDS011;2548;52.050;11.036;2022-08-05T05:02:55;11.63;;;10.23;;
5058;SDS011;2548;52.050;11.036;2022-08-05T05:05:22;20.40;;;10.10;;
5058;SDS011;2548;52.050;11.036;2022-08-05T05:07:50;14.27;;;9.30;;
5058;SDS011;2548;52.050;11.036;2022-08-05T05:10:17;12.60;;;9.10;;
5058;SDS011;2548;52.050;11.036;2022-08-05T05:12:44;15.53;;;10.10;;
5058;SDS011;2548;52.050;11.036;2022-08-05T05:15:13;18.53;;;9.80;;
5058;SDS011;2548;52.050;11.036;2022-08-05T05:17:41;14.00;;;9.93;;
5058;SDS011;2548;52.050;11.036;2022-08-05T05:20:09;15.43;;;8.37;;
5058;SDS011;2548;52.050;11.036;2022-08-05T05:22:37;14.53;;;9.80;;
5058;SDS011;2548;52.050;11.036;2022-08-05T05:25:06;19.53;;;9.97;;
5058;SDS011;2548;52.050;11.036;2022-08-05T05:27:35;16.23;;;10.50;;
5058;SDS011;2548;52.050;11.036;2022-08-05T05:30:04;16.30;;;9.83;;
5058;SDS011;2548;52.050;11.036;2022-08-05T05:32:33;15.93;;;10.27;;
5058;SDS011;2548;52.050;11.036;2022-08-05T05:35:01;14.87;;;10.73;;
5058;SDS011;2548;52.050;11.036;2022-08-05T05:37:28;12.20;;;10.73;;
5058;SDS011;2548;52.050;11.036;2022-08-05T05:39:55;11.80;;;9.37;;
5058;SDS011;2548;52.050;11.036;2022-08-05T05:42:23;13.37;;;10.03;;
5058;SDS011;2548;52.050;11.036;2022-08-05T05:44:50;11.80;;;9.73;;
5058;SDS011;2548;52.050;11.036;2022-08-05T05:47:18;13.87;;;9.47;;
5058;SDS011;2548;52.050;11.036;2022-08-05T05:49:46;12.63;;;9.83;;
5058;SDS011;2548;52.050;11.036;2022-08-05T05:52:13;11.73;;;9.50;;
5058;SDS011;2548;52.050;11.036;2022-08-05T05:54:41;16.80;;;8.70;;
5058;SDS011;2548;52.050;11.036;2022-08-05T05:57:08;16.67;;;10.30;;
5058;SDS011;2548;52.050;11.036;2022-08-05T05:59:36;11.50;;;8.97;;
5058;SDS011;2548;52.050;11.036;2022-08-05T06:02:03;10.23;;;9.20;;
5058;SDS011;2548;52.050;11.036;2022-08-05T06:04:31;12.20;;;9.27;;
5058;SDS011;2548;52.050;11.036;2022-08-05T06:06:59;19.30;;;10.47;;
5058;SDS011;2548;52.050;11.036;2022-08-05T06:09:27;18.80;;;10.97;;
5058;SDS011;2548;52.050;11.036;2022-08-05T06:11:54;14.00;;;10.40;;
5058;SDS011;2548;52.050;11.036;2022-08-05T06:14:21;17.47;;;11.03;;
5058;SDS011;2548;52.050;11.036;2022-08-05T06:16:49;20.50;;;10.30;;
5058;SDS011;2548;52.050;11.036;2022-08-05T06:19:16;14.37;;;9.60;;
5058;SDS011;2548;52.050;11.036;2022-08-05T06:21:44;14.23;;;10.10;;
5058;SDS011;2548;52.050;11.036;2022-08-05T06:24:13;18.10;;;10.60;;
5058;SDS011;2548;52.050;11.036;2022-08-05T06:26:40;20.63;;;11.13;;
5058;SDS011;2548;52.050;11.036;2022-08-05T06:29:08;15.23;;;9.93;;
5058;SDS011;2548;52.050;11.036;2022-08-05T06:31:36;11.27;;;10.10;;
5058;SDS011;2548;52.050;11.036;2022-08-05T06:34:03;17.33;;;9.47;;
5058;SDS011;2548;52.050;11.036;2022-08-05T06:36:31;13.77;;;9.67;;
5058;SDS011;2548;52.050;11.036;2022-08-05T06:38:58;12.40;;;9.10;;
5058;SDS011;2548;52.050;11.036;2022-08-05T06:41:27;11.93;;;8.97;;
5058;SDS011;2548;52.050;11.036;2022-08-05T06:43:54;13.70;;;9.40;;
5058;SDS011;2548;52.050;11.036;2022-08-05T06:46:22;9.97;;;9.00;;
5058;SDS011;2548;52.050;11.036;2022-08-05T06:48:49;22.80;;;11.47;;
5058;SDS011;2548;52.050;11.036;2022-08-05T06:51:17;14.43;;;10.40;;
5058;SDS011;2548;52.050;11.036;2022-08-05T06:53:44;14.77;;;11.07;;
5058;SDS011;2548;52.050;11.036;2022-08-05T06:56:12;17.90;;;10.80;;
5058;SDS011;2548;52.050;11.036;2022-08-05T06:58:40;11.97;;;10.33;;
5058;SDS011;2548;52.050;11.036;2022-08-05T07:01:08;15.13;;;11.60;;
5058;SDS011;2548;52.050;11.036;2022-08-05T07:03:35;18.50;;;11.80;;
5058;SDS011;2548;52.050;11.036;2022-08-05T07:06:03;11.23;;;9.83;;
5058;SDS011;2548;52.050;11.036;2022-08-05T07:08:30;12.37;;;10.00;;
5058;SDS011;2548;52.050;11.036;2022-08-05T07:10:58;15.03;;;11.23;;
5058;SDS011;2548;52.050;11.036;2022-08-05T07:13:25;13.73;;;12.10;;
5058;SDS011;2548;52.050;11.036;2022-08-05T07:16:12;13.40;;;10.83;;
5058;SDS011;2548;52.050;11.036;2022-08-05T07:18:57;17.20;;;10.20;;
5058;SDS011;2548;52.050;11.036;2022-08-05T07:21:24;15.83;;;9.80;;
5058;SDS011;2548;52.050;11.036;2022-08-05T07:23:52;12.30;;;9.33;;
5058;SDS011;2548;52.050;11.036;2022-08-05T07:26:19;17.77;;;10.27;;
5058;SDS011;2548;52.050;11.036;2022-08-05T07:28:46;14.70;;;8.37;;
5058;SDS011;2548;52.050;11.036;2022-08-05T07:31:16;16.90;;;10.50;;
5058;SDS011;2548;52.050;11.036;2022-08-05T07:33:44;15.13;;;10.03;;
5058;SDS011;2548;52.050;11.036;2022-08-05T07:36:11;22.07;;;10.13;;
5058;SDS011;2548;52.050;11.036;2022-08-05T07:38:39;12.73;;;10.00;;
5058;SDS011;2548;52.050;11.036;2022-08-05T07:41:08;12.23;;;8.87;;
5058;SDS011;2548;52.050;11.036;2022-08-05T07:43:36;12.63;;;9.50;;
5058;SDS011;2548;52.050;11.036;2022-08-05T07:46:04;14.60;;;10.33;;
5058;SDS011;2548;52.050;11.036;2022-08-05T07:48:33;13.20;;;9.13;;
5058;SDS011;2548;52.050;11.036;2022-08-05T07:51:00;15.87;;;11.00;;
5058;SDS011;2548;52.050;11.036;2022-08-05T07:53:28;16.03;;;9.57;;
5058;SDS011;2548;52.050;11.036;2022-08-05T07:55:55;12.43;;;9.13;;
5058;SDS011;2548;52.050;11.036;2022-08-05T07:58:23;18.60;;;9.13;;
5058;SDS011;2548;52.050;11.036;2022-08-05T08:00:50;12.60;;;8.20;;
5058;SDS011;2548;52.050;11.036;2022-08-05T08:03:17;11.03;;;8.53;;
5058;SDS011;2548;52.050;11.036;2022-08-05T08:05:46;11.40;;;9.93;;
5058;SDS011;2548;52.050;11.036;2022-08-05T08:08:15;12.67;;;10.63;;
5058;SDS011;2548;52.050;11.036;2022-08-05T08:10:43;12.20;;;10.63;;
5058;SDS011;2548;52.050;11.036;2022-08-05T08:13:11;11.57;;;10.50;;
5058;SDS011;2548;52.050;11.036;2022-08-05T08:15:38;16.63;;;11.20;;
5058;SDS011;2548;52.050;11.036;2022-08-05T08:18:06;15.50;;;10.10;;
5058;SDS011;2548;52.050;11.036;2022-08-05T08:20:34;10.17;;;9.27;;
5058;SDS011;2548;52.050;11.036;2022-08-05T08:23:02;11.67;;;9.47;;
5058;SDS011;2548;52.050;11.036;2022-08-05T08:25:32;13.30;;;8.50;;
5058;SDS011;2548;52.050;11.036;2022-08-05T08:27:59;8.37;;;7.53;;
5058;SDS011;2548;52.050;11.036;2022-08-05T08:30:27;13.57;;;9.80;;
5058;SDS011;2548;52.050;11.036;2022-08-05T08:32:54;11.70;;;8.73;;
5058;SDS011;2548;52.050;11.036;2022-08-05T08:35:21;9.53;;;8.57;;
5058;SDS011;2548;52.050;11.036;2022-08-05T08:37:49;10.47;;;8.17;;
5058;SDS011;2548;52.050;11.036;2022-08-05T08:40:17;10.80;;;9.10;;
5058;SDS011;2548;52.050;11.036;2022-08-05T08:42:46;8.57;;;7.67;;
5058;SDS011;2548;52.050;11.036;2022-08-05T08:45:17;9.37;;;7.43;;
5058;SDS011;2548;52.050;11.036;2022-08-05T08:47:46;8.70;;;7.90;;
5058;SDS011;2548;52.050;11.036;2022-08-05T08:50:16;11.80;;;7.83;;
5058;SDS011;2548;52.050;11.036;2022-08-05T08:52:48;8.97;;;8.17;;
5058;SDS011;2548;52.050;11.036;2022-08-05T08:55:20;7.63;;;7.13;;
5058;SDS011;2548;52.050;11.036;2022-08-05T08:57:47;7.10;;;6.40;;
5058;SDS011;2548;52.050;11.036;2022-08-05T09:00:15;13.30;;;7.97;;
5058;SDS011;2548;52.050;11.036;2022-08-05T09:02:43;9.20;;;6.93;;
5058;SDS011;2548;52.050;11.036;2022-08-05T09:05:11;7.47;;;5.93;;
5058;SDS011;2548;52.050;11.036;2022-08-05T09:07:39;6.60;;;5.80;;
5058;SDS011;2548;52.050;11.036;2022-08-05T09:10:06;15.30;;;8.67;;
5058;SDS011;2548;52.050;11.036;2022-08-05T09:12:36;8.90;;;8.10;;
5058;SDS011;2548;52.050;11.036;2022-08-05T09:15:04;8.00;;;6.40;;
5058;SDS011;2548;52.050;11.036;2022-08-05T09:17:33;10.60;;;7.50;;
5058;SDS011;2548;52.050;11.036;2022-08-05T09:20:00;11.73;;;8.50;;
5058;SDS011;2548;52.050;11.036;2022-08-05T09:22:29;9.07;;;7.33;;
5058;SDS011;2548;52.050;11.036;2022-08-05T09:25:30;9.70;;;7.00;;
5058;SDS011;2548;52.050;11.036;2022-08-05T09:28:06;6.33;;;5.83;;
5058;SDS011;2548;52.050;11.036;2022-08-05T09:30:36;8.03;;;7.27;;
5058;SDS011;2548;52.050;11.036;2022-08-05T09:33:03;8.70;;;6.77;;
5058;SDS011;2548;52.050;11.036;2022-08-05T09:35:31;9.93;;;7.70;;
5058;SDS011;2548;52.050;11.036;2022-08-05T09:37:58;6.53;;;5.93;;
5058;SDS011;2548;52.050;11.036;2022-08-05T09:40:29;7.50;;;6.37;;
5058;SDS011;2548;52.050;11.036;2022-08-05T09:42:58;8.57;;;6.83;;
5058;SDS011;2548;52.050;11.036;2022-08-05T09:45:37;7.87;;;6.10;;
5058;SDS011;2548;52.050;11.036;2022-08-05T09:48:18;7.30;;;6.33;;
5058;SDS011;2548;52.050;11.036;2022-08-05T09:50:50;8.60;;;6.50;;
5058;SDS011;2548;52.050;11.036;2022-08-05T09:53:19;7.03;;;6.33;;
5058;SDS011;2548;52.050;11.036;2022-08-05T09:55:49;8.73;;;7.90;;
5058;SDS011;2548;52.050;11.036;2022-08-05T09:58:18;13.03;;;9.00;;
5058;SDS011;2548;52.050;11.036;2022-08-05T10:00:53;15.73;;;7.47;;
5058;SDS011;2548;52.050;11.036;2022-08-05T10:03:22;8.67;;;8.07;;
5058;SDS011;2548;52.050;11.036;2022-08-05T10:05:59;7.10;;;6.43;;
5058;SDS011;2548;52.050;11.036;2022-08-05T10:08:28;7.60;;;7.00;;
5058;SDS011;2548;52.050;11.036;2022-08-05T10:10:56;6.40;;;5.83;;
5058;SDS011;2548;52.050;11.036;2022-08-05T10:13:28;6.20;;;5.70;;
5058;SDS011;2548;52.050;11.036;2022-08-05T10:15:58;6.30;;;5.80;;
5058;SDS011;2548;52.050;11.036;2022-08-05T10:18:26;7.13;;;5.17;;
5058;SDS011;2548;52.050;11.036;2022-08-05T10:20:57;8.37;;;5.80;;
5058;SDS011;2548;52.050;11.036;2022-08-05T10:23:27;5.47;;;4.60;;
5058;SDS011;2548;52.050;11.036;2022-08-05T10:25:57;10.00;;;6.50;;
5058;SDS011;2548;52.050;11.036;2022-08-05T10:28:26;6.97;;;6.27;;
5058;SDS011;2548;52.050;11.036;2022-08-05T10:30:55;8.13;;;5.53;;
5058;SDS011;2548;52.050;11.036;2022-08-05T10:33:24;6.90;;;5.97;;
5058;SDS011;2548;52.050;11.036;2022-08-05T10:35:53;15.17;;;7.27;;
5058;SDS011;2548;52.050;11.036;2022-08-05T10:38:22;8.70;;;7.93;;
5058;SDS011;2548;52.050;11.036;2022-08-05T10:40:54;12.80;;;7.80;;
5058;SDS011;2548;52.050;11.036;2022-08-05T10:43:30;9.90;;;8.23;;
5058;SDS011;2548;52.050;11.036;2022-08-05T10:46:03;8.63;;;7.80;;
5058;SDS011;2548;52.050;11.036;2022-08-05T10:48:34;9.37;;;8.30;;
5058;SDS011;2548;52.050;11.036;2022-08-05T10:51:06;13.17;;;11.80;;
5058;SDS011;2548;52.050;11.036;2022-08-05T10:53:39;14.37;;;12.07;;
5058;SDS011;2548;52.050;11.036;2022-08-05T10:56:10;17.00;;;12.63;;
5058;SDS011;2548;52.050;11.036;2022-08-05T10:58:46;15.40;;;13.70;;
5058;SDS011;2548;52.050;11.036;2022-08-05T11:01:15;12.67;;;11.30;;
5058;SDS011;2548;52.050;11.036;2022-08-05T11:04:00;15.57;;;11.03;;
5058;SDS011;2548;52.050;11.036;2022-08-05T11:06:29;11.97;;;10.90;;
5058;SDS011;2548;52.050;11.036;2022-08-05T11:09:16;12.83;;;9.70;;
5058;SDS011;2548;52.050;11.036;2022-08-05T11:11:45;10.83;;;9.60;;
5058;SDS011;2548;52.050;11.036;2022-08-05T11:14:21;15.30;;;12.10;;
5058;SDS011;2548;52.050;11.036;2022-08-05T11:19:56;11.20;;;9.30;;
5058;SDS011;2548;52.050;11.036;2022-08-05T11:22:38;10.60;;;9.70;;
5058;SDS011;2548;52.050;11.036;2022-08-05T11:34:02;12.00;;;10.70;;
5058;SDS011;2548;52.050;11.036;2022-08-05T11:36:41;11.50;;;10.30;;
5058;SDS011;2548;52.050;11.036;2022-08-05T11:39:12;13.03;;;11.23;;
5058;SDS011;2548;52.050;11.036;2022-08-05T11:41:42;9.73;;;8.73;;
5058;SDS011;2548;52.050;11.036;2022-08-05T11:44:18;9.77;;;8.87;;
5058;SDS011;2548;52.050;11.036;2022-08-05T11:46:47;11.10;;;10.10;;
5058;SDS011;2548;52.050;11.036;2022-08-05T11:49:16;10.63;;;9.60;;
5058;SDS011;2548;52.050;11.036;2022-08-05T11:51:47;9.40;;;8.70;;
5058;SDS011;2548;52.050;11.036;2022-08-05T11:54:20;9.73;;;8.73;;
5058;SDS011;2548;52.050;11.036;2022-08-05T11:56:50;12.80;;;9.10;;
5058;SDS011;2548;52.050;11.036;2022-08-05T11:59:19;10.27;;;9.10;;
5058;SDS011;2548;52.050;11.036;2022-08-05T12:01:51;10.70;;;8.80;;
5058;SDS011;2548;52.050;11.036;2022-08-05T12:04:19;9.00;;;8.20;;
5058;SDS011;2548;52.050;11.036;2022-08-05T12:06:48;8.60;;;8.00;;
5058;SDS011;2548;52.050;11.036;2022-08-05T12:09:17;9.70;;;8.23;;
5058;SDS011;2548;52.050;11.036;2022-08-05T12:11:49;9.63;;;8.83;;
5058;SDS011;2548;52.050;11.036;2022-08-05T12:14:17;9.93;;;9.13;;
5058;SDS011;2548;52.050;11.036;2022-08-05T12:16:45;10.97;;;8.90;;
5058;SDS011;2548;52.050;11.036;2022-08-05T12:19:14;11.13;;;8.93;;
5058;SDS011;2548;52.050;11.036;2022-08-05T12:21:43;15.10;;;9.90;;
5058;SDS011;2548;52.050;11.036;2022-08-05T12:24:14;9.23;;;8.53;;
5058;SDS011;2548;52.050;11.036;2022-08-05T12:26:43;11.40;;;9.93;;
5058;SDS011;2548;52.050;11.036;2022-08-05T12:29:13;10.60;;;9.13;;
5058;SDS011;2548;52.050;11.036;2022-08-05T12:31:45;11.70;;;10.77;;
5058;SDS011;2548;52.050;11.036;2022-08-05T12:34:13;13.00;;;10.43;;
5058;SDS011;2548;52.050;11.036;2022-08-05T12:36:42;13.10;;;11.90;;
5058;SDS011;2548;52.050;11.036;2022-08-05T12:39:10;21.93;;;18.43;;
5058;SDS011;2548;52.050;11.036;2022-08-05T12:41:40;19.87;;;17.70;;
5058;SDS011;2548;52.050;11.036;2022-08-05T12:44:08;21.17;;;17.43;;
5058;SDS011;2548;52.050;11.036;2022-08-05T12:46:38;26.17;;;20.67;;
5058;SDS011;2548;52.050;11.036;2022-08-05T12:49:06;27.93;;;23.13;;
5058;SDS011;2548;52.050;11.036;2022-08-05T12:51:42;28.13;;;19.03;;
5058;SDS011;2548;52.050;11.036;2022-08-05T12:54:16;24.57;;;19.03;;
5058;SDS011;2548;52.050;11.036;2022-08-05T12:56:48;20.00;;;16.50;;
5058;SDS011;2548;52.050;11.036;2022-08-05T12:59:17;21.23;;;16.37;;
5058;SDS011;2548;52.050;11.036;2022-08-05T13:01:52;27.50;;;16.20;;
5058;SDS011;2548;52.050;11.036;2022-08-05T13:04:21;23.77;;;15.60;;
5058;SDS011;2548;52.050;11.036;2022-08-05T13:06:48;25.03;;;15.80;;
5058;SDS011;2548;52.050;11.036;2022-08-05T13:09:16;16.03;;;13.10;;
5058;SDS011;2548;52.050;11.036;2022-08-05T13:11:43;13.97;;;12.57;;
5058;SDS011;2548;52.050;11.036;2022-08-05T13:14:16;17.77;;;12.30;;
5058;SDS011;2548;52.050;11.036;2022-08-05T13:16:48;16.03;;;11.53;;
5058;SDS011;2548;52.050;11.036;2022-08-05T13:19:20;23.53;;;12.40;;
5058;SDS011;2548;52.050;11.036;2022-08-05T13:21:48;15.20;;;12.23;;
5058;SDS011;2548;52.050;11.036;2022-08-05T13:24:16;15.33;;;12.87;;
5058;SDS011;2548;52.050;11.036;2022-08-05T13:26:45;19.77;;;13.80;;
5058;SDS011;2548;52.050;11.036;2022-08-05T13:29:14;20.67;;;13.27;;
5058;SDS011;2548;52.050;11.036;2022-08-05T13:31:44;23.40;;;14.10;;
5058;SDS011;2548;52.050;11.036;2022-08-05T13:34:12;18.20;;;13.50;;
5058;SDS011;2548;52.050;11.036;2022-08-05T13:36:40;15.97;;;11.03;;
5058;SDS011;2548;52.050;11.036;2022-08-05T13:39:08;11.27;;;9.00;;
5058;SDS011;2548;52.050;11.036;2022-08-05T13:41:38;6.97;;;6.37;;
5058;SDS011;2548;52.050;11.036;2022-08-05T13:44:05;5.50;;;5.00;;
5058;SDS011;2548;52.050;11.036;2022-08-05T13:46:34;4.43;;;4.03;;
5058;SDS011;2548;52.050;11.036;2022-08-05T13:49:02;3.63;;;3.23;;
5058;SDS011;2548;52.050;11.036;2022-08-05T13:51:31;1.80;;;1.70;;
5058;SDS011;2548;52.050;11.036;2022-08-05T13:53:59;2.27;;;2.10;;
5058;SDS011;2548;52.050;11.036;2022-08-05T13:56:26;2.13;;;2.03;;
5058;SDS011;2548;52.050;11.036;2022-08-05T13:58:54;2.00;;;1.90;;
5058;SDS011;2548;52.050;11.036;2022-08-05T14:01:22;6.10;;;2.40;;
5058;SDS011;2548;52.050;11.036;2022-08-05T14:03:51;3.57;;;2.57;;
5058;SDS011;2548;52.050;11.036;2022-08-05T14:06:36;6.13;;;2.27;;
5058;SDS011;2548;52.050;11.036;2022-08-05T14:09:03;3.13;;;2.93;;
5058;SDS011;2548;52.050;11.036;2022-08-05T14:11:31;3.87;;;2.43;;
5058;SDS011;2548;52.050;11.036;2022-08-05T14:13:58;2.90;;;2.57;;
5058;SDS011;2548;52.050;11.036;2022-08-05T14:16:25;7.30;;;2.23;;
5058;SDS011;2548;52.050;11.036;2022-08-05T14:18:54;3.80;;;2.70;;
5058;SDS011;2548;52.050;11.036;2022-08-05T14:21:22;2.50;;;2.30;;
5058;SDS011;2548;52.050;11.036;2022-08-05T14:23:49;12.80;;;2.67;;
5058;SDS011;2548;52.050;11.036;2022-08-05T14:26:17;2.83;;;2.60;;
5058;SDS011;2548;52.050;11.036;2022-08-05T14:28:44;2.60;;;2.40;;
5058;SDS011;2548;52.050;11.036;2022-08-05T14:31:12;4.23;;;2.73;;
5058;SDS011;2548;52.050;11.036;2022-08-05T14:33:39;2.90;;;2.50;;
5058;SDS011;2548;52.050;11.036;2022-08-05T14:36:08;5.20;;;2.87;;
5058;SDS011;2548;52.050;11.036;2022-08-05T14:38:36;6.13;;;3.53;;
5058;SDS011;2548;52.050;11.036;2022-08-05T14:41:03;2.53;;;2.33;;
5058;SDS011;2548;52.050;11.036;2022-08-05T14:43:31;2.27;;;2.17;;
5058;SDS011;2548;52.050;11.036;2022-08-05T14:45:58;4.40;;;2.30;;
5058;SDS011;2548;52.050;11.036;2022-08-05T14:48:26;3.20;;;2.20;;
5058;SDS011;2548;52.050;11.036;2022-08-05T14:50:54;4.00;;;2.47;;
5058;SDS011;2548;52.050;11.036;2022-08-05T14:53:23;3.17;;;2.90;;
5058;SDS011;2548;52.050;11.036;2022-08-05T14:55:50;5.43;;;3.10;;
5058;SDS011;2548;52.050;11.036;2022-08-05T14:58:18;3.10;;;2.90;;
5058;SDS011;2548;52.050;11.036;2022-08-05T15:00:45;2.57;;;2.37;;
5058;SDS011;2548;52.050;11.036;2022-08-05T15:03:12;4.50;;;2.20;;
5058;SDS011;2548;52.050;11.036;2022-08-05T15:05:40;3.73;;;2.67;;
5058;SDS011;2548;52.050;11.036;2022-08-05T15:08:07;3.23;;;3.00;;
5058;SDS011;2548;52.050;11.036;2022-08-05T15:10:36;3.30;;;2.27;;
5058;SDS011;2548;52.050;11.036;2022-08-05T15:13:06;3.50;;;2.43;;
5058;SDS011;2548;52.050;11.036;2022-08-05T15:15:33;2.30;;;2.10;;
5058;SDS011;2548;52.050;11.036;2022-08-05T15:18:01;2.23;;;2.13;;
5058;SDS011;2548;52.050;11.036;2022-08-05T15:20:29;2.00;;;1.80;;
5058;SDS011;2548;52.050;11.036;2022-08-05T15:23:01;6.17;;;2.37;;